Terminal Aerodrome Forecast
Issued by NWS

Current Version | Previous Version | Graphics & Text | Print | Product List | Glossary On
Versions: 1 2 3 4 5 6 7 8 9 10 11 12 13 14 15 16 17 18 19 20 21 22 23 24 25 26 27 28 29 30 31 32 33 34 35 36 37
968
FTUS41 KRNK 222106 AAA
TAFLWB
TAF AMD
KLWB 222106Z 2221/2318 31015G25KT P6SM SCT015 OVC035
     FM230300 00000KT P6SM VCSH OVC015
     FM230500 VRB03KT P6SM OVC008
     FM230700 12004KT 2SM -DZ BR OVC003
      TEMPO 2309/2312 1/4SM -RA FG OVC001
     FM231200 13004KT 5SM BR OVC003
     FM231400 13004KT P6SM BKN008=

USA.gov is the U.S. government's official web portal to all federal, state and local government web resources and services.